Time;durP1;ratioP1;P1;durP2;ratioP2;P2;SDS_P1;SDS_P2;PMS_P1;PMS_P2;Temp;Humidity;BMP_temperature;BMP_pressure;BME280_temperature;BME280_humidity;BME280_pressure;Samples;Min_cycle;Max_cycle;Signal;HPM_P1;HPM_P2
2023/09/10 00:01:09;;;;;;;11.47;5.20;;;;;;;16.13;69.04;95587.00;5069762;28;20226;-76
2023/09/10 00:03:35;;;;;;;14.40;5.50;;;;;;;16.03;68.67;95576.13;5068340;28;20237;-76
2023/09/10 00:06:01;;;;;;;14.27;5.60;;;;;;;15.91;69.29;95591.88;5047702;28;20235;-76
2023/09/10 00:08:27;;;;;;;11.37;5.20;;;;;;;16.08;68.17;95585.03;5078310;28;20255;-77
2023/09/10 00:10:56;;;;;;;11.43;4.80;;;;;;;16.12;66.38;95588.06;5053922;28;20233;-77
2023/09/10 00:13:22;;;;;;;10.53;4.73;;;;;;;15.93;67.62;95586.41;5044119;28;20232;-77
2023/09/10 00:15:48;;;;;;;8.57;4.33;;;;;;;15.87;66.32;95574.84;5072076;28;20372;-77
2023/09/10 00:18:14;;;;;;;11.47;4.37;;;;;;;16.20;64.92;95579.84;5052366;28;20691;-77
2023/09/10 00:20:40;;;;;;;10.87;4.20;;;;;;;16.58;64.48;95575.19;5064602;28;20225;-77
2023/09/10 00:23:05;;;;;;;10.03;4.17;;;;;;;16.61;64.07;95587.97;5073591;28;20240;-77
2023/09/10 00:25:31;;;;;;;8.17;4.03;;;;;;;16.63;64.17;95579.81;5070716;28;20225;-76
2023/09/10 00:27:57;;;;;;;9.23;4.30;;;;;;;16.48;65.17;95585.44;5053764;28;20235;-77
2023/09/10 00:30:22;;;;;;;8.37;4.20;;;;;;;16.13;66.38;95579.91;5048065;28;20240;-76
2023/09/10 00:32:48;;;;;;;11.87;4.20;;;;;;;16.28;65.93;95581.38;5049756;28;20241;-77
2023/09/10 00:35:13;;;;;;;9.57;4.40;;;;;;;16.24;66.64;95577.56;5050029;28;20237;-77
2023/09/10 00:37:39;;;;;;;8.17;4.33;;;;;;;15.92;67.58;95568.91;5043133;28;20696;-77
2023/09/10 00:40:05;;;;;;;11.43;4.20;;;;;;;15.85;68.65;95576.91;5050526;28;20241;-76
2023/09/10 00:42:31;;;;;;;9.93;4.33;;;;;;;16.00;68.19;95574.72;5066473;28;20376;-77
2023/09/10 00:44:56;;;;;;;7.90;4.00;;;;;;;15.81;68.22;95580.19;5070895;28;20221;-77
2023/09/10 00:47:22;;;;;;;11.83;4.20;;;;;;;15.64;68.22;95579.91;5076021;28;20244;-76
2023/09/10 00:49:49;;;;;;;10.20;3.80;;;;;;;15.62;69.22;95584.56;5052360;28;20237;-77
2023/09/10 00:52:14;;;;;;;9.23;3.63;;;;;;;15.45;69.75;95580.88;5056537;28;20225;-76
2023/09/10 00:54:39;;;;;;;8.40;4.20;;;;;;;15.58;69.58;95583.41;5056620;28;20240;-76
2023/09/10 00:57:05;;;;;;;7.63;3.47;;;;;;;15.47;69.64;95582.28;5073193;28;20224;-77
2023/09/10 00:59:30;;;;;;;8.30;3.80;;;;;;;15.24;70.07;95584.59;5065613;28;20294;-77
2023/09/10 01:01:57;;;;;;;8.50;3.60;;;;;;;15.54;69.22;95586.69;5048924;28;20232;-77
2023/09/10 01:04:23;;;;;;;8.33;3.80;;;;;;;15.78;68.48;95575.34;5058887;28;20236;-77
2023/09/10 01:06:50;;;;;;;9.53;4.03;;;;;;;15.61;69.42;95575.06;5049832;28;20240;-78
2023/09/10 01:09:15;;;;;;;8.87;4.07;;;;;;;15.32;70.80;95586.19;5051949;28;20236;-77
2023/09/10 01:11:57;;;;;;;9.20;4.27;;;;;;;15.44;70.63;95573.94;5069302;28;20727;-77
2023/09/10 01:14:38;;;;;;;8.37;3.90;;;;;;;15.63;69.81;95573.00;5068721;28;20233;-77
2023/09/10 01:17:18;;;;;;;8.07;3.90;;;;;;;15.83;69.30;95567.59;5058761;28;20638;-77
2023/09/10 01:19:46;;;;;;;9.43;4.00;;;;;;;15.68;69.66;95573.19;5073093;28;20224;-77
2023/09/10 01:22:43;;;;;;;7.10;3.80;;;;;;;15.55;70.04;95575.91;5063382;28;20225;-76
2023/09/10 01:25:08;;;;;;;10.20;3.83;;;;;;;15.56;70.04;95566.16;5067009;28;20248;-77
2023/09/10 01:27:34;;;;;;;7.90;3.97;;;;;;;15.16;71.75;95563.75;5041624;28;20236;-76
2023/09/10 01:29:59;;;;;;;8.07;4.00;;;;;;;15.03;72.08;95579.63;5065646;28;20242;-77
2023/09/10 01:32:43;;;;;;;8.20;3.67;;;;;;;14.85;73.20;95575.06;5073164;28;20233;-76
2023/09/10 01:35:15;;;;;;;8.07;4.00;;;;;;;15.02;72.19;95577.22;5068075;28;20271;-76
2023/09/10 01:37:40;;;;;;;10.40;4.07;;;;;;;15.03;72.59;95579.63;5052531;28;20235;-76
2023/09/10 01:40:07;;;;;;;8.80;4.10;;;;;;;15.03;71.90;95586.75;5074290;28;20232;-77
2023/09/10 01:42:34;;;;;;;7.63;4.10;;;;;;;15.10;72.09;95584.88;5049964;28;20227;-77
2023/09/10 01:44:59;;;;;;;8.43;3.93;;;;;;;15.21;71.36;95576.31;5033765;28;20240;-77
2023/09/10 01:47:25;;;;;;;8.53;4.10;;;;;;;14.99;72.72;95578.47;5071277;28;20616;-76
2023/09/10 01:49:50;;;;;;;7.87;4.17;;;;;;;15.07;72.25;95580.03;5056734;28;20242;-76
2023/09/10 01:52:16;;;;;;;8.67;3.80;;;;;;;15.12;71.63;95582.84;5051850;28;20302;-77
2023/09/10 01:54:41;;;;;;;8.30;3.90;;;;;;;15.20;71.25;95580.78;5053282;28;20230;-77
2023/09/10 01:57:07;;;;;;;9.20;3.50;;;;;;;15.25;69.26;95585.41;5064122;28;20240;-76
2023/09/10 01:59:32;;;;;;;8.87;3.70;;;;;;;15.40;66.98;95580.66;5076261;28;20684;-76
2023/09/10 02:01:58;;;;;;;8.97;3.40;;;;;;;15.33;67.83;95582.53;5053477;28;20232;-76
2023/09/10 02:04:23;;;;;;;6.00;3.43;;;;;;;15.34;67.86;95592.88;5066248;28;20660;-76
2023/09/10 02:06:48;;;;;;;10.70;3.40;;;;;;;15.31;67.91;95588.00;5068913;28;20336;-77
2023/09/10 02:09:14;;;;;;;9.93;3.30;;;;;;;15.63;65.57;95588.03;5059145;28;20241;-77
2023/09/10 02:11:39;;;;;;;5.63;3.07;;;;;;;15.55;65.97;95590.94;5057442;28;20257;-77
2023/09/10 02:14:05;;;;;;;5.10;2.90;;;;;;;15.60;65.69;95596.38;5064073;28;20651;-76
2023/09/10 02:16:30;;;;;;;5.37;3.00;;;;;;;15.50;65.70;95591.56;5066590;28;20225;-76
2023/09/10 02:18:56;;;;;;;6.07;2.90;;;;;;;14.91;67.31;95596.31;5078937;28;20236;-77
2023/09/10 02:21:21;;;;;;;9.73;3.20;;;;;;;15.20;67.28;95599.22;5047592;28;20239;-77
2023/09/10 02:23:46;;;;;;;6.83;3.10;;;;;;;15.07;67.83;95598.50;5063769;28;20229;-76
2023/09/10 02:26:12;;;;;;;7.00;3.00;;;;;;;14.87;67.48;95606.50;5071132;28;20228;-76
2023/09/10 02:28:37;;;;;;;5.27;3.20;;;;;;;15.05;67.09;95611.88;5036442;28;20244;-77
2023/09/10 02:31:06;;;;;;;7.17;2.87;;;;;;;14.99;67.03;95610.09;5058801;28;20243;-77
2023/09/10 02:33:32;;;;;;;8.10;3.03;;;;;;;15.00;67.46;95606.41;5072912;28;20227;-79
2023/09/10 02:35:57;;;;;;;10.50;3.00;;;;;;;14.92;68.54;95603.22;5064265;28;20249;-76
2023/09/10 02:38:24;;;;;;;7.07;3.10;;;;;;;14.88;68.85;95607.31;5062901;28;20221;-76
2023/09/10 02:40:50;;;;;;;9.40;3.10;;;;;;;14.91;69.21;95602.41;5067649;28;20297;-76
2023/09/10 02:43:15;;;;;;;10.23;3.67;;;;;;;14.73;71.46;95592.56;5065034;28;20228;-77
2023/09/10 02:45:40;;;;;;;6.97;3.43;;;;;;;14.87;71.59;95603.03;5063240;28;20282;-76
2023/09/10 02:48:06;;;;;;;7.87;3.70;;;;;;;14.63;72.29;95588.72;5058095;28;20220;-77
2023/09/10 02:50:31;;;;;;;10.27;3.63;;;;;;;14.44;72.76;95590.41;5064476;28;20308;-77
2023/09/10 02:52:57;;;;;;;9.67;3.50;;;;;;;14.39;73.50;95586.78;5050532;28;20280;-77
2023/09/10 02:55:22;;;;;;;8.77;3.90;;;;;;;14.24;75.14;95592.25;5067370;28;21015;-76
2023/09/10 02:57:48;;;;;;;7.63;3.50;;;;;;;14.23;74.60;95588.00;5066602;28;20629;-76
2023/09/10 03:00:14;;;;;;;9.77;3.63;;;;;;;14.34;74.00;95587.41;5065829;28;20745;-76
2023/09/10 03:02:40;;;;;;;7.60;3.63;;;;;;;14.21;75.09;95586.59;5056921;28;20320;-77
2023/09/10 03:05:05;;;;;;;9.03;3.77;;;;;;;14.19;74.23;95592.84;5073828;28;20292;-77
2023/09/10 03:07:32;;;;;;;9.20;3.60;;;;;;;14.12;74.57;95591.25;5040956;28;20231;-77
2023/09/10 03:09:57;;;;;;;10.33;3.70;;;;;;;14.10;74.94;95588.00;5073312;28;20244;-76
2023/09/10 03:12:26;;;;;;;7.57;3.53;;;;;;;14.29;74.57;95597.69;5064727;28;20241;-78
2023/09/10 03:14:52;;;;;;;7.63;3.43;;;;;;;14.58;73.72;95592.00;5045085;28;20298;-77
2023/09/10 03:17:17;;;;;;;7.17;3.70;;;;;;;14.61;74.41;95591.59;5065174;28;20243;-77
2023/09/10 03:19:43;;;;;;;8.83;3.60;;;;;;;14.54;74.57;95595.25;5039723;28;20230;-78
2023/09/10 03:22:10;;;;;;;9.67;3.80;;;;;;;14.60;74.77;95597.84;5070008;28;21104;-77
2023/09/10 03:24:35;;;;;;;8.20;3.80;;;;;;;14.49;75.22;95595.06;5061520;28;21101;-77
2023/09/10 03:27:01;;;;;;;6.03;3.37;;;;;;;14.52;75.28;95594.66;5070411;28;20351;-77
2023/09/10 03:29:26;;;;;;;13.37;3.80;;;;;;;14.70;74.46;95598.25;5045026;28;20406;-77
2023/09/10 03:31:52;;;;;;;7.60;3.70;;;;;;;14.21;76.01;95605.03;5067481;28;20280;-77
2023/09/10 03:34:18;;;;;;;7.73;3.50;;;;;;;14.28;76.12;95605.81;5052258;28;20261;-78
2023/09/10 03:36:43;;;;;;;8.50;3.70;;;;;;;14.11;76.59;95611.50;5063812;28;20228;-77
2023/09/10 03:39:09;;;;;;;9.77;3.40;;;;;;;14.07;76.77;95606.84;5047699;28;20241;-77
2023/09/10 03:41:34;;;;;;;7.50;3.70;;;;;;;13.96;77.31;95613.53;5062656;28;20224;-77
2023/09/10 03:44:00;;;;;;;7.13;3.73;;;;;;;14.05;77.59;95617.56;5064453;28;20263;-78
2023/09/10 03:46:25;;;;;;;8.10;3.60;;;;;;;14.11;76.97;95618.59;5042266;28;20224;-75
2023/09/10 03:48:51;;;;;;;9.03;3.90;;;;;;;14.12;76.45;95617.56;5052597;28;20244;-77
2023/09/10 03:51:17;;;;;;;10.37;3.57;;;;;;;14.05;76.02;95609.69;5045650;28;20225;-77
2023/09/10 03:53:42;;;;;;;8.73;3.63;;;;;;;13.90;76.21;95616.97;5056415;28;20235;-77
2023/09/10 03:56:08;;;;;;;9.90;3.53;;;;;;;14.01;75.01;95623.47;5053104;28;20621;-77
2023/09/10 03:58:33;;;;;;;6.93;3.33;;;;;;;14.19;74.24;95618.38;5051924;28;20791;-77
2023/09/10 04:00:58;;;;;;;10.83;3.47;;;;;;;14.59;71.66;95613.88;5046729;28;20927;-77
2023/09/10 04:03:27;;;;;;;8.20;3.53;;;;;;;14.64;70.76;95622.78;5046485;28;20595;-77
2023/09/10 04:05:52;;;;;;;6.03;3.30;;;;;;;14.64;71.53;95616.72;5036236;28;20307;-78
2023/09/10 04:08:18;;;;;;;6.97;3.43;;;;;;;14.65;71.36;95618.31;5070084;28;20289;-78
2023/09/10 04:10:43;;;;;;;7.93;3.53;;;;;;;14.43;72.16;95627.47;5070963;28;20303;-77
2023/09/10 04:13:09;;;;;;;5.87;3.53;;;;;;;14.23;72.48;95624.06;5071989;28;20228;-77
2023/09/10 04:15:34;;;;;;;6.73;3.57;;;;;;;14.16;73.63;95630.13;5035371;28;20221;-78
2023/09/10 04:18:00;;;;;;;9.37;3.53;;;;;;;13.92;74.58;95629.94;5045049;28;20316;-77
2023/09/10 04:20:25;;;;;;;7.33;3.70;;;;;;;14.20;73.51;95627.91;5073011;28;20247;-77
2023/09/10 04:22:51;;;;;;;8.57;3.60;;;;;;;14.07;74.72;95630.53;5053663;28;20225;-77
2023/09/10 04:25:16;;;;;;;7.83;3.70;;;;;;;14.41;73.85;95627.69;5037504;28;20238;-78
2023/09/10 04:27:41;;;;;;;7.50;3.43;;;;;;;14.59;73.42;95634.97;5046153;28;20236;-77
2023/09/10 04:30:07;;;;;;;7.67;3.70;;;;;;;14.01;75.10;95628.72;5069042;28;20240;-77
2023/09/10 04:32:33;;;;;;;7.10;3.50;;;;;;;13.80;75.88;95634.19;5071333;28;20620;-78
2023/09/10 04:34:58;;;;;;;6.77;3.57;;;;;;;13.95;75.53;95635.59;5072117;28;20231;-77
2023/09/10 04:37:23;;;;;;;7.70;3.40;;;;;;;14.07;75.39;95631.34;5078278;28;20367;-77
2023/09/10 04:39:51;;;;;;;6.63;3.30;;;;;;;14.25;74.37;95632.56;5048619;28;20248;-78
2023/09/10 04:42:16;;;;;;;8.17;3.57;;;;;;;14.61;72.04;95638.19;5030442;28;20260;-77
2023/09/10 04:44:42;;;;;;;6.10;3.43;;;;;;;14.60;71.70;95629.47;5066412;28;21094;-77
2023/09/10 04:47:07;;;;;;;6.97;3.23;;;;;;;14.66;70.67;95633.13;5039500;28;20643;-77
2023/09/10 04:49:33;;;;;;;9.47;3.50;;;;;;;14.71;69.75;95638.59;5060454;28;20229;-74
2023/09/10 04:51:58;;;;;;;9.30;3.50;;;;;;;14.91;69.14;95636.69;5068076;28;20624;-74
2023/09/10 04:54:24;;;;;;;5.60;3.37;;;;;;;14.85;68.56;95640.94;5047173;28;21242;-74
2023/09/10 04:56:53;;;;;;;7.60;3.37;;;;;;;15.02;68.36;95640.50;5036474;28;20229;-74
2023/09/10 04:59:19;;;;;;;8.73;3.40;;;;;;;14.85;68.77;95645.44;5038471;28;20239;-73
2023/09/10 05:01:44;;;;;;;8.37;3.30;;;;;;;14.89;69.50;95643.16;5046705;28;20281;-76
2023/09/10 05:04:10;;;;;;;8.03;3.30;;;;;;;15.06;68.23;95647.78;5068352;28;20726;-76
2023/09/10 05:06:35;;;;;;;6.77;3.40;;;;;;;14.98;68.92;95644.56;5052189;28;20232;-77
2023/09/10 05:09:01;;;;;;;9.17;3.47;;;;;;;15.11;67.91;95645.31;5054843;28;20238;-78
2023/09/10 05:11:26;;;;;;;7.10;3.70;;;;;;;14.94;67.95;95640.72;5064385;28;20250;-75
2023/09/10 05:13:52;;;;;;;9.07;3.83;;;;;;;15.09;68.06;95647.38;5068796;28;20224;-76
2023/09/10 05:16:18;;;;;;;8.70;3.80;;;;;;;14.93;69.24;95645.19;5047430;28;20243;-75
2023/09/10 05:18:43;;;;;;;7.40;3.60;;;;;;;15.18;67.27;95654.03;5052288;28;20313;-78
2023/09/10 05:21:09;;;;;;;5.97;3.47;;;;;;;15.36;66.38;95658.59;5067089;28;20228;-76
2023/09/10 05:23:34;;;;;;;6.73;3.60;;;;;;;15.28;67.07;95657.03;5035508;28;20229;-76
2023/09/10 05:26:03;;;;;;;8.50;3.80;;;;;;;15.29;66.38;95657.81;5063736;28;20240;-75
2023/09/10 05:28:29;;;;;;;9.40;4.20;;;;;;;15.27;66.20;95654.56;5073567;28;20351;-78
2023/09/10 05:30:55;;;;;;;11.33;4.13;;;;;;;15.18;66.09;95655.84;5036621;28;20297;-75
2023/09/10 05:33:20;;;;;;;9.03;4.13;;;;;;;15.47;66.21;95660.59;5048951;28;20241;-75
2023/09/10 05:35:58;;;;;;;8.73;4.07;;;;;;;15.61;65.83;95667.44;5066914;28;20221;-75
2023/09/10 05:38:24;;;;;;;8.67;3.83;;;;;;;15.73;65.41;95657.00;5029751;28;20232;-74
2023/09/10 05:40:49;;;;;;;8.13;4.10;;;;;;;15.63;65.50;95670.66;5064995;28;20233;-73
2023/09/10 05:43:15;;;;;;;8.27;4.00;;;;;;;15.76;65.19;95667.91;5068442;28;20285;-75
2023/09/10 05:45:40;;;;;;;8.30;3.90;;;;;;;15.74;64.95;95669.97;5066339;28;20208;-74
2023/09/10 05:48:06;;;;;;;9.00;4.33;;;;;;;15.77;65.30;95668.75;5045798;28;20657;-75
2023/09/10 05:50:31;;;;;;;9.33;3.87;;;;;;;15.90;64.71;95658.91;5050015;28;20665;-74
2023/09/10 05:52:57;;;;;;;9.53;3.83;;;;;;;16.00;63.38;95658.44;5065711;28;20361;-74
2023/09/10 05:55:24;;;;;;;9.77;4.23;;;;;;;16.07;63.34;95662.63;5068749;28;20229;-74
2023/09/10 05:57:52;;;;;;;9.53;3.90;;;;;;;16.09;63.71;95657.16;5036481;28;20229;-75
2023/09/10 06:00:19;;;;;;;7.53;3.73;;;;;;;16.11;63.40;95665.66;5053381;28;20251;-74
2023/09/10 06:02:44;;;;;;;7.03;3.83;;;;;;;16.28;62.66;95666.75;5068698;28;20221;-74
2023/09/10 06:05:09;;;;;;;7.83;3.60;;;;;;;16.33;63.58;95674.03;5050778;28;20232;-75
2023/09/10 06:07:35;;;;;;;10.73;3.80;;;;;;;16.39;63.22;95675.78;5070850;28;20278;-74
2023/09/10 06:10:05;;;;;;;9.80;4.00;;;;;;;16.46;62.70;95669.41;5055283;28;20241;-74
2023/09/10 06:12:30;;;;;;;9.27;3.80;;;;;;;16.57;62.94;95662.66;5073091;28;20819;-74
2023/09/10 06:14:56;;;;;;;9.97;3.80;;;;;;;16.69;62.89;95668.84;5054841;28;20233;-74
2023/09/10 06:17:21;;;;;;;10.10;4.10;;;;;;;16.78;61.79;95667.53;5059252;28;20236;-74
2023/09/10 06:19:48;;;;;;;8.30;4.20;;;;;;;16.77;62.53;95669.34;5066915;28;20312;-74
2023/09/10 06:22:14;;;;;;;10.47;3.90;;;;;;;16.75;62.53;95675.88;5052850;28;20758;-75
2023/09/10 06:24:39;;;;;;;6.60;3.57;;;;;;;16.88;63.25;95675.75;5027589;28;20217;-74
2023/09/10 06:27:05;;;;;;;9.30;4.20;;;;;;;16.94;61.54;95674.06;5052291;28;20616;-75
2023/09/10 06:29:30;;;;;;;6.73;3.97;;;;;;;17.03;61.90;95668.25;5059097;28;20232;-75
2023/09/10 06:31:56;;;;;;;9.60;4.33;;;;;;;17.10;61.16;95674.28;5065503;28;20229;-74
2023/09/10 06:34:21;;;;;;;9.87;4.67;;;;;;;17.18;60.91;95671.34;5032528;28;20232;-74
2023/09/10 06:36:46;;;;;;;8.80;4.50;;;;;;;17.26;60.89;95671.03;5051737;28;20648;-74
2023/09/10 06:39:12;;;;;;;9.30;4.47;;;;;;;17.36;60.17;95671.31;5049644;28;20237;-74
2023/09/10 06:41:37;;;;;;;14.30;4.53;;;;;;;17.42;59.45;95673.06;5065696;28;20587;-74
2023/09/10 06:44:03;;;;;;;9.60;4.30;;;;;;;17.47;58.08;95672.41;5064439;28;20239;-74
2023/09/10 06:46:28;;;;;;;12.97;4.43;;;;;;;17.49;58.45;95662.41;5062099;28;21048;-74
2023/09/10 06:48:54;;;;;;;9.53;4.40;;;;;;;17.50;57.71;95670.09;5060471;28;20236;-73
2023/09/10 06:51:19;;;;;;;11.87;4.33;;;;;;;17.65;58.39;95666.31;5051595;28;20232;-72
2023/09/10 06:53:45;;;;;;;8.90;4.20;;;;;;;17.64;58.60;95669.97;5068479;28;20231;-73
2023/09/10 06:56:10;;;;;;;11.03;4.40;;;;;;;17.77;58.65;95664.50;5062970;28;20232;-73
2023/09/10 06:58:36;;;;;;;13.27;4.13;;;;;;;17.77;59.17;95667.94;5059393;28;20232;-73
2023/09/10 07:01:05;;;;;;;15.50;4.10;;;;;;;17.82;57.69;95672.56;5046275;28;20331;-72
2023/09/10 07:03:32;;;;;;;11.47;4.10;;;;;;;18.04;57.67;95671.00;5045296;28;20242;-73
2023/09/10 07:05:58;;;;;;;7.23;4.10;;;;;;;17.98;56.64;95661.34;5052184;28;20738;-72
2023/09/10 07:08:24;;;;;;;11.27;4.10;;;;;;;18.13;56.13;95669.63;5034958;28;20260;-73
2023/09/10 07:10:49;;;;;;;8.70;3.83;;;;;;;18.24;55.79;95670.72;5065690;28;20231;-72
2023/09/10 07:13:16;;;;;;;11.20;3.80;;;;;;;18.31;56.55;95671.41;5047193;28;20319;-73
2023/09/10 07:15:41;;;;;;;7.27;3.80;;;;;;;18.34;55.62;95670.97;5064197;28;20274;-72
2023/09/10 07:18:07;;;;;;;10.47;3.70;;;;;;;18.43;53.95;95672.22;5034761;28;20733;-73
2023/09/10 07:20:32;;;;;;;9.20;3.60;;;;;;;18.48;54.83;95675.03;5072189;28;20231;-73
2023/09/10 07:22:58;;;;;;;7.73;3.60;;;;;;;18.58;54.60;95667.31;5031222;28;20669;-73
2023/09/10 07:25:24;;;;;;;7.80;3.83;;;;;;;18.68;53.84;95678.94;5053569;28;20291;-72
2023/09/10 07:27:49;;;;;;;9.57;3.80;;;;;;;18.82;53.92;95669.72;5035213;28;20299;-73
2023/09/10 07:30:14;;;;;;;11.87;3.93;;;;;;;18.99;52.77;95671.66;5062285;28;20655;-72
2023/09/10 07:32:41;;;;;;;7.07;3.60;;;;;;;18.91;54.52;95662.22;5071463;28;20221;-72
2023/09/10 07:35:07;;;;;;;6.57;3.63;;;;;;;18.97;52.31;95663.94;5070702;28;20252;-73
2023/09/10 07:37:33;;;;;;;7.27;3.47;;;;;;;19.00;53.90;95660.81;5053379;28;20218;-73
2023/09/10 07:39:58;;;;;;;12.60;4.10;;;;;;;19.17;52.88;95661.72;5069482;28;20235;-73
2023/09/10 07:42:24;;;;;;;9.53;4.20;;;;;;;19.24;52.56;95654.44;5064972;28;20316;-72
2023/09/10 07:44:49;;;;;;;6.60;3.40;;;;;;;19.24;51.04;95656.28;5068361;28;20244;-73
2023/09/10 07:47:15;;;;;;;9.03;3.90;;;;;;;19.38;51.46;95652.34;5072130;28;20279;-72
2023/09/10 07:49:40;;;;;;;9.63;3.90;;;;;;;19.54;51.20;95650.75;5070398;28;20240;-72
2023/09/10 07:52:06;;;;;;;11.13;3.70;;;;;;;19.56;49.93;95654.78;5071003;28;20232;-74
2023/09/10 07:54:31;;;;;;;6.73;3.60;;;;;;;19.63;49.63;95650.16;5037879;28;20224;-73
2023/09/10 07:56:57;;;;;;;9.30;3.63;;;;;;;19.72;48.51;95648.75;5054611;28;20620;-72
2023/09/10 07:59:22;;;;;;;8.53;3.40;;;;;;;19.95;48.50;95655.78;5051262;28;20263;-73
2023/09/10 08:01:48;;;;;;;8.87;3.17;;;;;;;19.96;48.14;95654.75;5041506;28;20232;-73
2023/09/10 08:04:13;;;;;;;8.00;3.47;;;;;;;20.14;45.91;95652.66;5043171;28;20261;-73
2023/09/10 08:06:39;;;;;;;7.60;3.50;;;;;;;20.26;46.99;95644.63;5035039;28;20225;-72
2023/09/10 08:09:05;;;;;;;5.27;3.30;;;;;;;20.34;45.22;95640.78;5054861;28;20240;-73
2023/09/10 08:11:31;;;;;;;7.40;3.47;;;;;;;20.36;46.92;95644.81;5039165;28;20259;-73
2023/09/10 08:13:56;;;;;;;6.43;3.37;;;;;;;20.42;45.75;95643.03;5045796;28;20235;-72
2023/09/10 08:16:22;;;;;;;13.87;3.77;;;;;;;20.46;47.32;95641.50;5029886;28;20252;-73
2023/09/10 08:18:47;;;;;;;8.40;3.50;;;;;;;20.78;46.54;95640.63;5056790;28;20233;-72
2023/09/10 08:21:13;;;;;;;10.17;3.80;;;;;;;20.96;47.50;95639.56;5013730;28;21049;-73
2023/09/10 08:23:38;;;;;;;8.63;3.50;;;;;;;20.89;46.26;95628.28;5028768;28;20255;-72
2023/09/10 08:26:04;;;;;;;7.07;3.60;;;;;;;20.94;46.62;95636.34;5066120;28;20232;-73
2023/09/10 08:28:29;;;;;;;7.73;3.43;;;;;;;21.20;46.21;95632.97;5042243;28;20312;-77
2023/09/10 08:30:55;;;;;;;8.27;3.60;;;;;;;21.36;45.35;95636.63;5020602;28;20727;-77
2023/09/10 08:33:25;;;;;;;7.27;3.80;;;;;;;21.40;46.28;95633.19;5051225;28;20239;-76
2023/09/10 08:35:51;;;;;;;9.63;3.70;;;;;;;21.55;45.15;95631.75;5063625;28;20702;-72
2023/09/10 08:38:16;;;;;;;5.83;3.70;;;;;;;21.69;44.58;95628.44;5027970;28;20221;-72
2023/09/10 08:40:59;;;;;;;9.77;3.90;;;;;;;21.91;44.08;95625.75;5035775;28;20670;-72
2023/09/10 08:43:48;;;;;;;7.20;3.47;;;;;;;21.86;44.27;95625.72;5067252;28;20243;-73
2023/09/10 08:46:14;;;;;;;9.43;4.07;;;;;;;21.96;43.80;95623.16;5064513;28;20623;-72
2023/09/10 08:48:43;;;;;;;8.07;3.93;;;;;;;22.25;44.03;95624.47;5070845;28;20234;-73
2023/09/10 08:51:12;;;;;;;9.80;3.70;;;;;;;22.47;42.73;95622.53;5035052;28;20277;-73
2023/09/10 08:53:41;;;;;;;7.93;3.70;;;;;;;22.54;42.65;95632.97;5059548;28;20225;-71
2023/09/10 08:56:08;;;;;;;11.30;3.80;;;;;;;22.67;41.75;95625.34;5043920;28;20220;-73
2023/09/10 08:58:34;;;;;;;10.90;3.90;;;;;;;22.76;41.97;95626.44;5052011;28;20225;-72
2023/09/10 09:01:00;;;;;;;10.67;3.97;;;;;;;22.87;42.64;95629.19;5055317;28;20227;-73
2023/09/10 09:03:27;;;;;;;8.25;4.10;;;;;;;22.86;43.14;95628.38;5061680;28;20228;-73
2023/09/10 09:05:52;;;;;;;6.63;3.83;;;;;;;22.87;42.92;95632.66;5068418;28;20713;-73
2023/09/10 09:08:20;;;;;;;8.20;4.10;;;;;;;22.99;42.32;95632.47;5074147;28;20229;-73
2023/09/10 09:10:46;;;;;;;16.17;3.70;;;;;;;23.08;42.45;95622.88;5056006;28;20236;-73
2023/09/10 09:13:12;;;;;;;10.43;4.40;;;;;;;23.21;41.61;95630.44;5053388;28;20259;-73
2023/09/10 09:15:39;;;;;;;9.83;4.50;;;;;;;23.24;41.99;95619.22;5036153;28;20286;-73
2023/09/10 09:18:06;;;;;;;8.90;4.27;;;;;;;23.33;42.57;95625.69;5052372;28;20231;-73
2023/09/10 09:20:33;;;;;;;6.33;4.20;;;;;;;23.47;42.05;95623.34;5057138;28;20225;-73
2023/09/10 09:23:03;;;;;;;8.00;4.27;;;;;;;23.62;42.29;95620.72;5054943;28;20239;-72
2023/09/10 09:25:28;;;;;;;8.47;4.40;;;;;;;23.58;42.97;95620.44;5052137;28;20599;-73
2023/09/10 09:27:55;;;;;;;12.43;4.23;;;;;;;23.79;42.39;95614.06;5051428;28;20247;-73
2023/09/10 09:30:20;;;;;;;12.80;4.30;;;;;;;23.98;41.47;95619.69;5040823;28;20780;-72
2023/09/10 09:32:46;;;;;;;6.32;4.22;;;;;;;23.77;40.80;95616.19;5057087;28;20224;-72
2023/09/10 09:35:11;;;;;;;7.05;4.30;;;;;;;23.63;41.80;95617.78;5051296;28;20735;-72
2023/09/10 09:37:37;;;;;;;7.28;4.18;;;;;;;23.86;41.91;95622.63;5062926;28;20231;-73
2023/09/10 09:40:12;;;;;;;6.88;4.10;;;;;;;23.90;42.14;95617.56;5057687;28;20236;-73
2023/09/10 09:42:38;;;;;;;9.75;4.35;;;;;;;23.96;42.26;95613.81;5035044;28;20232;-73
2023/09/10 09:45:04;;;;;;;7.05;4.20;;;;;;;24.13;41.53;95616.28;5051585;28;20218;-73
2023/09/10 09:47:30;;;;;;;8.80;4.45;;;;;;;24.18;41.06;95613.59;5036004;28;21396;-74
2023/09/10 09:49:56;;;;;;;8.63;4.20;;;;;;;24.18;41.68;95609.06;5074633;28;20302;-73
2023/09/10 09:52:21;;;;;;;9.32;4.32;;;;;;;24.20;41.43;95606.91;5042925;28;20303;-73
2023/09/10 09:54:47;;;;;;;7.60;4.43;;;;;;;24.24;41.34;95601.84;5076059;28;20611;-73
2023/09/10 09:57:13;;;;;;;7.82;4.13;;;;;;;24.30;40.67;95592.72;5049666;28;20231;-73
2023/09/10 09:59:38;;;;;;;7.47;4.07;;;;;;;24.34;40.90;95594.59;5051177;28;20228;-73
2023/09/10 10:02:04;;;;;;;6.68;4.32;;;;;;;24.50;41.78;95590.03;5051663;28;20229;-73
2023/09/10 10:04:33;;;;;;;7.40;4.50;;;;;;;24.54;42.29;95588.44;5040686;28;20227;-73
2023/09/10 10:06:58;;;;;;;9.27;4.63;;;;;;;24.55;39.57;95590.03;5051176;28;20225;-73
2023/09/10 10:09:33;;;;;;;9.48;4.63;;;;;;;24.59;41.53;95583.88;5064935;28;20367;-73
2023/09/10 10:11:58;;;;;;;8.63;4.22;;;;;;;24.61;41.00;95587.09;5062504;28;20316;-73
2023/09/10 10:14:24;;;;;;;7.75;4.30;;;;;;;24.60;40.84;95573.94;5073320;28;20423;-72
2023/09/10 10:16:49;;;;;;;7.20;4.55;;;;;;;24.67;41.27;95574.50;5056646;28;20676;-73
2023/09/10 10:19:15;;;;;;;6.50;4.50;;;;;;;24.74;41.39;95567.75;5073120;28;20267;-73
2023/09/10 10:21:40;;;;;;;8.90;4.45;;;;;;;25.03;40.74;95564.50;5039442;28;20225;-73
2023/09/10 10:24:07;;;;;;;8.80;4.30;;;;;;;25.11;39.92;95569.28;5053861;28;20232;-73
2023/09/10 10:26:32;;;;;;;8.90;4.50;;;;;;;25.09;39.39;95566.88;5040217;28;20306;-73
2023/09/10 10:28:58;;;;;;;6.40;4.47;;;;;;;25.13;40.54;95561.75;5051079;28;20305;-72
2023/09/10 10:31:25;;;;;;;8.55;4.60;;;;;;;25.21;38.56;95570.03;5057308;28;20613;-72
2023/09/10 10:34:13;;;;;;;8.82;4.25;;;;;;;25.19;39.30;95558.00;5072871;28;20733;-73
2023/09/10 10:36:49;;;;;;;9.75;4.40;;;;;;;24.84;40.26;95555.47;5067000;28;20232;-74
2023/09/10 10:39:15;;;;;;;10.10;4.70;;;;;;;25.02;40.17;95558.34;5092786;28;20237;-73
2023/09/10 10:41:43;;;;;;;6.68;4.22;;;;;;;25.25;38.60;95555.00;5071034;28;20232;-73
2023/09/10 10:44:21;;;;;;;9.90;4.78;;;;;;;25.32;38.44;95555.50;5079815;28;20232;-73
2023/09/10 10:46:50;;;;;;;6.13;4.10;;;;;;;25.37;39.35;95562.72;5058708;28;20332;-73
2023/09/10 10:49:15;;;;;;;8.85;4.60;;;;;;;25.53;39.56;95550.84;5051067;28;20243;-73
2023/09/10 10:51:45;;;;;;;7.15;4.40;;;;;;;25.74;38.01;95554.22;5059801;28;20225;-74
2023/09/10 10:54:11;;;;;;;7.50;4.70;;;;;;;25.76;37.10;95550.19;5035724;28;20245;-73
2023/09/10 10:56:37;;;;;;;8.07;4.50;;;;;;;25.84;37.66;95541.53;5049895;28;20232;-73
2023/09/10 10:59:02;;;;;;;8.15;4.25;;;;;;;25.92;37.37;95535.56;5078763;28;20220;-73
2023/09/10 11:01:28;;;;;;;10.27;4.20;;;;;;;26.01;37.25;95549.97;5042903;28;20309;-73
2023/09/10 11:03:53;;;;;;;11.10;4.40;;;;;;;25.96;37.90;95541.19;5080001;28;20262;-73
2023/09/10 11:06:19;;;;;;;8.73;4.45;;;;;;;26.06;37.84;95528.47;5068378;28;20253;-73
2023/09/10 11:08:48;;;;;;;9.85;4.22;;;;;;;25.97;37.26;95529.38;5067713;28;20221;-73
2023/09/10 11:11:37;;;;;;;6.47;4.18;;;;;;;26.04;36.80;95527.16;5070406;28;20243;-72
2023/09/10 11:14:08;;;;;;;8.60;4.40;;;;;;;26.11;36.92;95533.03;5068111;28;20717;-72
2023/09/10 11:16:34;;;;;;;7.25;4.35;;;;;;;26.26;37.56;95527.53;5064661;28;20230;-73
2023/09/10 11:19:00;;;;;;;8.48;4.30;;;;;;;26.34;37.59;95526.13;5057053;28;20334;-73
2023/09/10 11:21:56;;;;;;;6.63;4.18;;;;;;;26.42;36.36;95528.97;5049383;28;20230;-73
2023/09/10 11:24:22;;;;;;;7.25;4.38;;;;;;;26.25;36.53;95515.19;5088064;28;20910;-74
2023/09/10 11:26:47;;;;;;;8.45;4.90;;;;;;;26.21;36.58;95519.53;5075632;28;20240;-73
2023/09/10 11:29:17;;;;;;;11.48;4.70;;;;;;;26.26;36.86;95510.63;5069887;28;20243;-73